createdAt,value
2022-09-01T00:01:42.172Z,101341.19
2022-09-01T00:04:12.749Z,101339.84
2022-09-01T00:06:41.018Z,101352.53
2022-09-01T00:09:13.617Z,101344.19
2022-09-01T00:11:42.325Z,101343.28
2022-09-01T00:14:22.201Z,101349.69
2022-09-01T00:16:57.963Z,101341.69
2022-09-01T00:19:25.084Z,101357.13
2022-09-01T00:21:52.025Z,101333.00
2022-09-01T00:24:19.886Z,101349.06
2022-09-01T00:26:46.794Z,101345.84
2022-09-01T00:29:13.429Z,101350.38
2022-09-01T00:31:40.940Z,101342.25
2022-09-01T00:34:08.008Z,101346.59
2022-09-01T00:36:34.859Z,101354.41
2022-09-01T00:39:02.149Z,101345.81
2022-09-01T00:41:30.616Z,101349.88
2022-09-01T00:44:00.581Z,101314.66
2022-09-01T00:46:35.352Z,101343.94
2022-09-01T00:49:17.647Z,101343.13
2022-09-01T00:51:50.506Z,101341.94
2022-09-01T00:54:26.627Z,101350.38
2022-09-01T00:56:57.432Z,101351.38
2022-09-01T00:59:26.488Z,101357.28
2022-09-01T01:01:54.452Z,101351.38
2022-09-01T01:04:21.051Z,101355.09
2022-09-01T01:06:58.411Z,101354.25
2022-09-01T01:09:26.420Z,101353.56
2022-09-01T01:11:53.503Z,101350.34
2022-09-01T01:14:20.271Z,101346.34
2022-09-01T01:16:48.945Z,101329.41
2022-09-01T01:19:42.367Z,101357.81
2022-09-01T01:22:32.952Z,101309.53
2022-09-01T01:25:01.089Z,101349.97
2022-09-01T01:27:39.993Z,101357.25
2022-09-01T01:30:11.895Z,101359.19
2022-09-01T01:32:47.842Z,101360.16
2022-09-01T01:35:16.501Z,101345.56
2022-09-01T01:37:45.828Z,101362.28
2022-09-01T01:40:15.817Z,101357.28
2022-09-01T01:42:48.360Z,101357.34
2022-09-01T01:45:19.757Z,101358.31
2022-09-01T01:47:55.690Z,101368.44
2022-09-01T01:50:25.234Z,101367.50
2022-09-01T01:52:58.360Z,101370.34
2022-09-01T01:55:28.877Z,101352.88
2022-09-01T01:57:56.283Z,101369.72
2022-09-01T02:00:30.110Z,101373.13
2022-09-01T02:02:57.635Z,101365.75
2022-09-01T02:05:28.743Z,101361.78
2022-09-01T02:07:59.976Z,101365.00
2022-09-01T02:10:31.662Z,101361.41
2022-09-01T02:13:07.238Z,101369.78
2022-09-01T02:15:44.254Z,101363.13
2022-09-01T02:18:14.309Z,101364.56
2022-09-01T02:20:41.926Z,101330.78
2022-09-01T02:23:12.325Z,101347.59
2022-09-01T02:25:58.995Z,101361.94
2022-09-01T02:28:32.031Z,101360.25
2022-09-01T02:30:59.839Z,101354.88
2022-09-01T02:33:28.389Z,101334.06
2022-09-01T02:35:59.453Z,101370.00
2022-09-01T02:38:29.723Z,101366.94
2022-09-01T02:40:58.454Z,101372.38
2022-09-01T02:43:28.383Z,101371.47
2022-09-01T02:45:59.550Z,101353.56
2022-09-01T02:48:37.173Z,101371.84
2022-09-01T02:51:11.357Z,101359.31
2022-09-01T02:53:39.320Z,101359.47
2022-09-01T02:56:14.272Z,101366.88
2022-09-01T02:58:46.672Z,101366.94
2022-09-01T03:01:29.188Z,101324.56
2022-09-01T03:04:01.497Z,101369.00
2022-09-01T03:06:29.036Z,101373.00
2022-09-01T03:08:59.597Z,101367.00
2022-09-01T03:11:29.041Z,101366.16
2022-09-01T03:13:55.793Z,101369.97
2022-09-01T03:16:22.959Z,101356.72
2022-09-01T03:18:50.591Z,101373.53
2022-09-01T03:21:17.716Z,101377.38
2022-09-01T03:23:48.437Z,101370.53
2022-09-01T03:26:18.642Z,101377.44
2022-09-01T03:28:46.100Z,101380.09
2022-09-01T03:31:12.949Z,101379.78
2022-09-01T03:33:39.569Z,101377.50
2022-09-01T03:36:14.798Z,101368.38
2022-09-01T03:38:43.962Z,101373.59
2022-09-01T03:41:13.140Z,101371.47
2022-09-01T03:43:46.926Z,101374.44
2022-09-01T03:46:21.775Z,101353.97
2022-09-01T03:48:55.252Z,101370.56
2022-09-01T03:51:23.276Z,101373.41
2022-09-01T03:53:54.346Z,101345.31
2022-09-01T03:56:25.567Z,101376.34
2022-09-01T03:58:52.876Z,101379.69
2022-09-01T04:01:19.636Z,101367.63
2022-09-01T04:03:49.125Z,101374.47
2022-09-01T04:06:18.587Z,101357.94
2022-09-01T04:08:46.264Z,101367.31
2022-09-01T04:11:24.125Z,101344.25
2022-09-01T04:13:51.456Z,101365.63
2022-09-01T04:16:43.029Z,101379.06
2022-09-01T04:19:20.409Z,101373.00
2022-09-01T04:21:52.027Z,101369.31
2022-09-01T04:24:19.349Z,101341.63
2022-09-01T04:26:48.596Z,101365.69
2022-09-01T04:29:19.752Z,101367.00
2022-09-01T04:31:49.139Z,101364.34
2022-09-01T04:34:16.268Z,101356.56
2022-09-01T04:36:44.837Z,101332.56
2022-09-01T04:39:13.290Z,101372.19
2022-09-01T04:41:46.136Z,101336.56
2022-09-01T04:44:18.918Z,101368.50
2022-09-01T04:46:48.265Z,101374.41
2022-09-01T04:49:19.534Z,101342.38
2022-09-01T04:51:53.385Z,101370.72
2022-09-01T04:54:22.584Z,101375.00
2022-09-01T04:56:51.211Z,101366.31
2022-09-01T04:59:21.557Z,101367.59
2022-09-01T05:01:50.322Z,101367.69
2022-09-01T05:04:19.860Z,101364.66
2022-09-01T05:06:49.805Z,101360.72
2022-09-01T05:09:19.119Z,101357.94
2022-09-01T05:11:46.283Z,101365.56
2022-09-01T05:14:13.416Z,101361.03
2022-09-01T05:16:42.989Z,101357.72
2022-09-01T05:19:15.611Z,101365.25
2022-09-01T05:21:45.625Z,101360.94
2022-09-01T05:24:21.757Z,101362.25
2022-09-01T05:26:50.821Z,101367.94
2022-09-01T05:29:17.737Z,101349.84
2022-09-01T05:31:46.934Z,101353.84
2022-09-01T05:34:20.048Z,101347.69
2022-09-01T05:36:50.509Z,101371.16
2022-09-01T05:39:17.207Z,101352.50
2022-09-01T05:41:44.136Z,101371.69
2022-09-01T05:44:15.579Z,101356.97
2022-09-01T05:46:44.467Z,101340.94
2022-09-01T05:49:13.832Z,101381.09
2022-09-01T05:51:46.079Z,101374.38
2022-09-01T05:54:18.871Z,101364.56
2022-09-01T05:56:46.074Z,101381.06
2022-09-01T05:59:23.273Z,101341.75
2022-09-01T06:01:50.853Z,101348.59
2022-09-01T06:04:18.091Z,101346.59
2022-09-01T06:07:06.659Z,101383.06
2022-09-01T06:09:38.177Z,101382.44
2022-09-01T06:12:05.730Z,101381.38
2022-09-01T06:14:32.261Z,101385.84
2022-09-01T06:16:58.984Z,101364.41
2022-09-01T06:19:25.520Z,101378.91
2022-09-01T06:21:53.361Z,101380.75
2022-09-01T06:24:20.436Z,101369.78
2022-09-01T06:26:46.987Z,101379.13
2022-09-01T06:29:15.593Z,101374.91
2022-09-01T06:31:43.367Z,101384.34
2022-09-01T06:34:18.184Z,101373.59
2022-09-01T06:36:46.666Z,101384.31
2022-09-01T06:39:19.597Z,101383.66
2022-09-01T06:41:52.603Z,101334.06
2022-09-01T06:44:22.953Z,101389.81
2022-09-01T06:46:53.546Z,101367.63
2022-09-01T06:49:23.630Z,101390.38
2022-09-01T06:51:51.737Z,101393.72
2022-09-01T06:59:54.339Z,101395.72
2022-09-01T07:02:22.279Z,101387.63
2022-09-01T07:04:53.543Z,101382.41
2022-09-01T07:10:24.719Z,101386.72
2022-09-01T07:13:12.192Z,101387.53
2022-09-01T07:18:28.527Z,101400.34
2022-09-01T07:21:05.646Z,101399.09
2022-09-01T07:24:10.722Z,101392.84
2022-09-01T07:29:09.691Z,101398.41
2022-09-01T07:34:46.218Z,101384.94
2022-09-01T07:38:47.353Z,101397.03
2022-09-01T07:42:56.720Z,101376.22
2022-09-01T07:42:56.983Z,101375.19
2022-09-01T07:43:12.811Z,101331.50
2022-09-01T07:45:47.441Z,101387.31
2022-09-01T07:48:35.935Z,101347.56
2022-09-01T07:53:50.750Z,101381.75
2022-09-01T07:56:20.541Z,101382.81
2022-09-01T07:58:49.025Z,101381.97
2022-09-01T08:01:21.956Z,101373.03
2022-09-01T08:03:54.097Z,101381.56
2022-09-01T08:06:22.640Z,101383.13
2022-09-01T08:08:49.799Z,101369.16
2022-09-01T08:11:40.055Z,101370.56
2022-09-01T08:14:11.189Z,101348.25
2022-09-01T08:16:40.079Z,101373.03
2022-09-01T08:19:18.631Z,101373.88
2022-09-01T08:21:45.230Z,101378.06
2022-09-01T08:24:11.761Z,101361.25
2022-09-01T08:26:38.304Z,101377.75
2022-09-01T08:29:04.948Z,101378.78
2022-09-01T08:31:32.518Z,101312.25
2022-09-01T08:34:00.093Z,101379.69
2022-09-01T08:36:26.767Z,101379.00
2022-09-01T08:38:53.396Z,101381.47
2022-09-01T08:41:28.606Z,101384.28
2022-09-01T08:44:33.109Z,101384.50
2022-09-01T08:47:07.174Z,101390.69
2022-09-01T08:49:43.863Z,101381.38
2022-09-01T08:52:27.390Z,101373.81
2022-09-01T08:55:06.593Z,101373.75
2022-09-01T08:57:37.212Z,101375.44
2022-09-01T09:00:11.291Z,101370.81
2022-09-01T09:02:38.055Z,101367.59
2022-09-01T09:05:22.651Z,101377.13
2022-09-01T09:08:08.122Z,101340.72
2022-09-01T09:10:56.071Z,101361.25
2022-09-01T09:13:47.070Z,101356.97
2022-09-01T09:16:21.329Z,101360.69
2022-09-01T09:18:55.177Z,101369.19
2022-09-01T09:21:37.512Z,101364.06
2022-09-01T09:24:11.125Z,101361.81
2022-09-01T09:26:44.902Z,101365.28
2022-09-01T09:29:11.792Z,101321.03
2022-09-01T09:31:45.714Z,101320.31
2022-09-01T09:34:39.273Z,101353.84
2022-09-01T09:37:21.133Z,101334.88
2022-09-01T09:40:17.285Z,101336.94
2022-09-01T09:42:54.011Z,101326.31
2022-09-01T09:45:42.021Z,101310.31
2022-09-01T09:48:30.373Z,101309.47
2022-09-01T09:51:16.027Z,101306.59
2022-09-01T09:53:42.635Z,101306.88
2022-09-01T09:56:17.365Z,101307.16
2022-09-01T09:58:47.004Z,101294.88
2022-09-01T10:01:24.578Z,101294.28
2022-09-01T10:03:59.513Z,101268.34
2022-09-01T10:06:32.147Z,101287.44
2022-09-01T10:08:59.619Z,101287.44
2022-09-01T10:11:40.844Z,101280.31
2022-09-01T10:14:35.501Z,101274.00
2022-09-01T10:17:11.443Z,101273.19
2022-09-01T10:19:41.968Z,101276.13
2022-09-01T10:22:10.069Z,101261.00
2022-09-01T10:24:41.918Z,101271.13
2022-09-01T10:27:22.707Z,101262.63
2022-09-01T10:30:12.542Z,101276.00
2022-09-01T10:32:50.795Z,101259.88
2022-09-01T10:35:31.330Z,101259.44
2022-09-01T10:37:59.654Z,101263.22
2022-09-01T10:40:31.602Z,101263.06
2022-09-01T10:43:24.289Z,101260.09
2022-09-01T10:45:57.715Z,101255.84
2022-09-01T10:48:32.395Z,101253.75
2022-09-01T10:51:19.035Z,101251.84
2022-09-01T10:53:48.933Z,101245.47
2022-09-01T10:56:43.606Z,101243.50
2022-09-01T10:59:37.360Z,101229.75
2022-09-01T11:02:26.905Z,101223.00
2022-09-01T11:04:54.905Z,101216.69
2022-09-01T11:07:50.645Z,101232.09
2022-09-01T11:10:11.968Z,101238.91
2022-09-01T11:13:03.573Z,101237.94
2022-09-01T11:15:42.800Z,101237.06
2022-09-01T11:18:26.089Z,101231.00
2022-09-01T11:20:55.369Z,101240.38
2022-09-01T11:23:30.428Z,101237.09
2022-09-01T11:26:32.468Z,101227.50
2022-09-01T11:28:59.144Z,101225.06
2022-09-01T11:31:31.261Z,101229.16
2022-09-01T11:34:14.291Z,101231.31
2022-09-01T11:36:50.199Z,101222.16
2022-09-01T11:39:19.167Z,101221.22
2022-09-01T11:42:06.014Z,101222.91
2022-09-01T11:44:51.415Z,101211.28
2022-09-01T11:47:17.972Z,101215.97
2022-09-01T11:49:57.933Z,101213.66
2022-09-01T11:52:30.811Z,101224.34
2022-09-01T11:54:58.561Z,101206.44
2022-09-01T11:57:32.298Z,101213.56
2022-09-01T12:00:01.538Z,101198.41
2022-09-01T12:02:31.716Z,101213.59
2022-09-01T12:04:58.694Z,101210.31
2022-09-01T12:07:44.483Z,101212.56
2022-09-01T12:10:33.610Z,101202.59
2022-09-01T12:13:07.057Z,101198.25
2022-09-01T12:15:36.529Z,101205.03
2022-09-01T12:18:20.891Z,101212.41
2022-09-01T12:20:51.640Z,101194.91
2022-09-01T12:23:27.567Z,101200.50
2022-09-01T12:25:56.496Z,101195.94
2022-09-01T12:28:24.879Z,101211.28
2022-09-01T12:30:53.743Z,101188.56
2022-09-01T12:33:24.176Z,101214.00
2022-09-01T12:35:52.513Z,101165.81
2022-09-01T12:38:20.743Z,101207.38
2022-09-01T12:40:53.687Z,101196.69
2022-09-01T12:43:32.527Z,101188.59
2022-09-01T12:46:02.953Z,101188.78
2022-09-01T12:48:34.157Z,101196.75
2022-09-01T12:51:25.520Z,101197.75
2022-09-01T12:54:00.666Z,101074.47
2022-09-01T12:56:32.291Z,101177.38
2022-09-01T12:59:05.090Z,101179.47
2022-09-01T13:01:33.917Z,101149.03
2022-09-01T13:04:10.491Z,101153.34
2022-09-01T13:06:37.167Z,101171.91
2022-09-01T13:09:04.030Z,101167.28
2022-09-01T13:12:05.771Z,101156.81
2022-09-01T13:14:17.534Z,101145.78
2022-09-01T13:16:46.870Z,101145.56
2022-09-01T13:19:17.993Z,101157.31
2022-09-01T13:21:48.614Z,101161.88
2022-09-01T13:24:15.157Z,101154.19
2022-09-01T13:26:42.079Z,101151.28
2022-09-01T13:29:08.584Z,101166.00
2022-09-01T13:31:35.699Z,101134.06
2022-09-01T13:34:10.747Z,101149.00
2022-09-01T13:36:49.270Z,101142.91
2022-09-01T13:39:18.683Z,101145.97
2022-09-01T13:41:47.119Z,101133.03
2022-09-01T13:44:13.930Z,101150.50
2022-09-01T13:50:05.043Z,101135.97
2022-09-01T13:52:15.118Z,101139.13
2022-09-01T13:54:44.286Z,101144.84
2022-09-01T13:57:11.980Z,101141.56
2022-09-01T13:59:39.021Z,101148.81
2022-09-01T14:02:05.917Z,101123.19
2022-09-01T14:04:32.515Z,101133.31
2022-09-01T14:06:59.724Z,101126.84
2022-09-01T14:09:26.765Z,101133.44
2022-09-01T14:11:54.345Z,101112.88
2022-09-01T14:14:21.102Z,101134.84
2022-09-01T14:16:47.731Z,101130.41
2022-09-01T14:19:14.322Z,101129.69
2022-09-01T14:21:41.650Z,101101.63
2022-09-01T14:24:08.401Z,101124.00
2022-09-01T14:26:35.021Z,101126.53
2022-09-01T14:29:02.653Z,101118.91
2022-09-01T14:31:30.187Z,101120.09
2022-09-01T14:33:57.061Z,101118.66
2022-09-01T14:36:26.735Z,101113.16
2022-09-01T14:38:54.149Z,101116.69
2022-09-01T14:41:23.025Z,101102.38
2022-09-01T14:43:51.435Z,101101.72
2022-09-01T14:46:19.266Z,101117.06
2022-09-01T14:48:47.741Z,101108.31
2022-09-01T14:52:10.268Z,101109.06
2022-09-01T14:54:13.822Z,101069.78
2022-09-01T14:56:41.933Z,101084.78
2022-09-01T14:59:09.493Z,101109.38
2022-09-01T15:01:36.112Z,101106.66
2022-09-01T15:04:03.082Z,101107.56
2022-09-01T15:06:29.688Z,101111.84
2022-09-01T15:08:56.245Z,101061.66
2022-09-01T15:11:22.753Z,101089.19
2022-09-01T15:13:52.116Z,101089.72
2022-09-01T15:16:21.710Z,101090.03
2022-09-01T15:18:48.463Z,101051.69
2022-09-01T15:21:20.335Z,101095.84
2022-09-01T15:23:48.640Z,101081.53
2022-09-01T15:26:16.990Z,101078.06
2022-09-01T15:28:44.884Z,101056.50
2022-09-01T15:31:12.812Z,101081.25
2022-09-01T15:33:40.845Z,101077.19
2022-09-01T15:36:08.392Z,101083.47
2022-09-01T15:38:35.626Z,101068.94
2022-09-01T15:41:02.856Z,101070.50
2022-09-01T15:43:29.472Z,101057.88
2022-09-01T15:45:58.365Z,101078.81
2022-09-01T15:48:27.381Z,101055.03
2022-09-01T15:50:54.246Z,101076.75
2022-09-01T15:53:21.103Z,101078.75
2022-09-01T15:55:48.964Z,101059.44
2022-09-01T15:58:18.072Z,101072.63
2022-09-01T16:00:45.400Z,101076.94
2022-09-01T16:03:12.287Z,101081.31
2022-09-01T16:05:40.153Z,101067.91
2022-09-01T16:08:09.514Z,101075.34
2022-09-01T16:10:38.088Z,101054.59
2022-09-01T16:13:04.691Z,101070.13
2022-09-01T16:15:31.582Z,101038.97
2022-09-01T16:18:26.048Z,101068.22
2022-09-01T16:21:08.775Z,101074.91
2022-09-01T16:23:49.042Z,101070.06
2022-09-01T16:26:20.758Z,101069.84
2022-09-01T16:28:52.885Z,101067.91
2022-09-01T16:31:29.480Z,101060.34
2022-09-01T16:34:01.973Z,101058.13
2022-09-01T16:36:45.976Z,101058.75
2022-09-01T16:39:47.032Z,101059.63
2022-09-01T16:42:38.341Z,101035.97
2022-09-01T16:45:09.863Z,101070.06
2022-09-01T16:48:02.752Z,101057.78
2022-09-01T16:50:54.620Z,101050.69
2022-09-01T16:53:37.537Z,101058.00
2022-09-01T16:56:31.989Z,101059.63
2022-09-01T16:59:03.172Z,101051.69
2022-09-01T17:01:37.061Z,101049.44
2022-09-01T17:04:18.841Z,101029.13
2022-09-01T17:07:13.505Z,101052.53
2022-09-01T17:09:44.086Z,101048.59
2022-09-01T17:12:19.901Z,101051.47
2022-09-01T17:14:55.130Z,101045.16
2022-09-01T17:17:30.503Z,101048.97
2022-09-01T17:19:57.837Z,101052.72
2022-09-01T17:22:25.223Z,101053.50
2022-09-01T17:28:03.850Z,101053.34
2022-09-01T17:30:34.476Z,101065.97
2022-09-01T17:33:19.462Z,101056.63
2022-09-01T17:36:17.919Z,101051.13
2022-09-01T17:38:54.213Z,101059.44
2022-09-01T17:41:34.523Z,101054.53
2022-09-01T17:44:07.122Z,101057.78
2022-09-01T17:46:46.977Z,101052.47
2022-09-01T17:49:38.624Z,101060.81
2022-09-01T17:52:33.066Z,101047.78
2022-09-01T17:55:36.784Z,101053.72
2022-09-01T17:58:27.219Z,101030.09
2022-09-01T18:01:00.297Z,101048.41
2022-09-01T18:03:26.806Z,101050.22
2022-09-01T18:06:00.418Z,101053.22
2022-09-01T18:08:44.715Z,101055.53
2022-09-01T18:11:29.046Z,101059.69
2022-09-01T18:14:03.962Z,101052.28
2022-09-01T18:17:06.891Z,101054.16
2022-09-01T18:19:41.370Z,101021.97
2022-09-01T18:22:10.745Z,101056.28
2022-09-01T18:24:52.059Z,101059.06
2022-09-01T18:27:18.677Z,101064.91
2022-09-01T18:29:47.346Z,101065.53
2022-09-01T18:32:22.914Z,101063.88
2022-09-01T18:35:20.449Z,101077.47
2022-09-01T18:37:58.029Z,101074.88
2022-09-01T18:40:46.628Z,101070.09
2022-09-01T18:43:16.813Z,101082.00
2022-09-01T18:46:02.611Z,101080.66
2022-09-01T18:48:49.434Z,101053.47
2022-09-01T18:51:43.854Z,101087.91
2022-09-01T18:54:19.618Z,101053.66
2022-09-01T18:56:57.468Z,101088.47
2022-09-01T18:59:44.532Z,101096.69
2022-09-01T19:02:40.221Z,101066.00
2022-09-01T19:05:33.626Z,101068.91
2022-09-01T19:08:08.321Z,101095.84
2022-09-01T19:10:42.974Z,101088.66
2022-09-01T19:13:35.545Z,101100.84
2022-09-01T19:16:03.119Z,101103.75
2022-09-01T19:18:32.683Z,101104.63
2022-09-01T19:21:04.429Z,101102.25
2022-09-01T19:23:49.719Z,101098.56
2022-09-01T19:26:21.265Z,101105.91
2022-09-01T19:29:05.451Z,101103.50
2022-09-01T19:31:36.854Z,101112.69
2022-09-01T19:34:10.524Z,101115.88
2022-09-01T19:36:42.988Z,101116.25
2022-09-01T19:39:14.410Z,101116.63
2022-09-01T19:42:03.427Z,101104.09
2022-09-01T19:44:48.781Z,101124.56
2022-09-01T19:47:25.685Z,101131.81
2022-09-01T19:50:17.625Z,101118.31
2022-09-01T19:53:03.543Z,101110.88
2022-09-01T19:55:36.158Z,101123.47
2022-09-01T19:58:12.650Z,101099.22
2022-09-01T20:00:52.476Z,101096.16
2022-09-01T20:03:41.469Z,101118.06
2022-09-01T20:06:12.100Z,101123.81
2022-09-01T20:08:47.777Z,101124.09
2022-09-01T20:11:39.658Z,101122.41
2022-09-01T20:14:22.759Z,101128.47
2022-09-01T20:16:51.352Z,101122.78
2022-09-01T20:19:51.293Z,101094.16
2022-09-01T20:22:21.442Z,101121.09
2022-09-01T20:24:48.006Z,101101.66
2022-09-01T20:27:32.058Z,101123.13
2022-09-01T20:30:05.879Z,101127.81
2022-09-01T20:32:58.721Z,101123.00
2022-09-01T20:35:44.325Z,101133.25
2022-09-01T20:38:48.457Z,101138.38
2022-09-01T20:41:26.084Z,101131.50
2022-09-01T20:43:54.373Z,101110.78
2022-09-01T20:46:22.689Z,101124.47
2022-09-01T20:48:49.992Z,101128.56
2022-09-01T20:51:28.547Z,101133.59
2022-09-01T20:54:00.408Z,101131.16
2022-09-01T20:56:54.648Z,101133.31
2022-09-01T20:59:36.470Z,101125.63
2022-09-01T21:02:27.150Z,101125.63
2022-09-01T21:05:12.696Z,101136.19
2022-09-01T21:08:14.596Z,101114.41
2022-09-01T21:10:52.154Z,101116.06
2022-09-01T21:13:43.377Z,101136.44
2022-09-01T21:16:31.760Z,101111.94
2022-09-01T21:19:13.915Z,101133.97
2022-09-01T21:22:08.874Z,101132.06
2022-09-01T21:24:36.087Z,101138.50
2022-09-01T21:27:11.222Z,101136.66
2022-09-01T21:29:43.735Z,101131.63
2022-09-01T21:32:11.746Z,101112.63
2022-09-01T21:34:38.292Z,101131.59
2022-09-01T21:37:05.129Z,101111.16
2022-09-01T21:39:31.660Z,101137.78
2022-09-01T21:41:58.598Z,101133.91
2022-09-01T21:44:25.726Z,101135.09
2022-09-01T21:46:52.870Z,101129.34
2022-09-01T21:49:19.497Z,101087.81
2022-09-01T21:51:46.283Z,101132.97
2022-09-01T21:54:12.852Z,101129.63
2022-09-01T21:56:39.488Z,101117.25
2022-09-01T21:59:06.127Z,101119.28
2022-09-01T22:01:35.134Z,101119.28
2022-09-01T22:04:04.406Z,101103.41
2022-09-01T22:06:31.972Z,101121.19
2022-09-01T22:09:02.953Z,101122.88
2022-09-01T22:11:47.129Z,101114.34
2022-09-01T22:14:13.896Z,101102.66
2022-09-01T22:16:40.501Z,101110.31
2022-09-01T22:19:07.198Z,101104.59
2022-09-01T22:21:35.741Z,101112.47
2022-09-01T22:24:02.495Z,101012.47
2022-09-01T22:26:31.930Z,101107.50
2022-09-01T22:29:00.610Z,101091.66
2022-09-01T22:31:28.623Z,101112.13
2022-09-01T22:33:55.733Z,101109.16
2022-09-01T22:36:42.231Z,101113.25
2022-09-01T22:39:10.580Z,101115.28
2022-09-01T22:41:38.662Z,101116.28
2022-09-01T22:44:05.741Z,101115.75
2022-09-01T22:46:35.018Z,101105.19
2022-09-01T22:49:01.653Z,101110.63
2022-09-01T22:51:29.020Z,101107.06
2022-09-01T22:53:55.769Z,101109.78
2022-09-01T22:56:25.375Z,101111.84
2022-09-01T22:58:54.956Z,101111.03
2022-09-01T23:01:24.502Z,101104.28
2022-09-01T23:03:52.107Z,101078.38
2022-09-01T23:06:27.546Z,101100.44
2022-09-01T23:08:57.729Z,101088.47
2022-09-01T23:11:25.503Z,101105.13
2022-09-01T23:13:53.064Z,101105.94
2022-09-01T23:16:20.838Z,101101.53
2022-09-01T23:18:48.565Z,101105.94
2022-09-01T23:21:17.678Z,101100.56
2022-09-01T23:23:44.554Z,101097.22
2022-09-01T23:26:13.658Z,101093.19
2022-09-01T23:28:42.249Z,101090.44
2022-09-01T23:31:14.173Z,101088.41
2022-09-01T23:33:40.779Z,101084.72
2022-09-01T23:36:09.715Z,101085.59
2022-09-01T23:38:37.140Z,101070.09
2022-09-01T23:41:13.503Z,101077.19
2022-09-01T23:43:40.471Z,101033.13
2022-09-01T23:46:08.001Z,101078.00
2022-09-01T23:48:34.842Z,101077.81
2022-09-01T23:51:07.325Z,101076.16
2022-09-01T23:53:35.262Z,101048.94
2022-09-01T23:56:03.880Z,101068.44
2022-09-01T23:58:31.965Z,101064.75
